MC SHIMLA BLOCK LEVEL FORECAST
DISTRICT MANDI      
Block BALH
Forecast Date RAIN  (mm) TEMPERATURE HUMIDITY WIND CloudCover(octa)
Max(0C) Min(0C) 0830(%) 1730(%) Speed(kmph) Direction(0)
25-11-2021 0.0 25.5 4.4 29 13 9 68 0
26-11-2021 0.0 25.3 5.2 31 14 8 68 0
27-11-2021 0.0 24.6 4.4 33 13 8 68 0
28-11-2021 0.0 23.5 4.2 28 13 9 68 0
29-11-2021 0.0 23.6 3.5 22 10 10 68 0
Block CHAUNTRA
Forecast Date RAIN  (mm) TEMPERATURE HUMIDITY WIND CloudCover(octa)
Max(0C) Min(0C) 0830(%) 1730(%) Speed(kmph) Direction(0)
25-11-2021 0.0 22.3 1.4 29 13 8 61 0
26-11-2021 0.0 22.1 2.2 30 14 8 61 0
27-11-2021 0.0 21.2 1.2 32 12 8 61 0
28-11-2021 0.0 20.1 1.1 27 12 8 61 0
29-11-2021 0.0 20.3 0.4 21 10 9 61 0
Block DHARMPUR
Forecast Date RAIN  (mm) TEMPERATURE HUMIDITY WIND CloudCover(octa)
Max(0C) Min(0C) 0830(%) 1730(%) Speed(kmph) Direction(0)
25-11-2021 0.0 23.1 2.5 29 13 8 68 0
26-11-2021 0.0 23.1 3.1 30 13 8 68 0
27-11-2021 0.0 22.1 2.1 32 12 7 68 0
28-11-2021 0.0 21.0 2.0 28 12 8 68 0
29-11-2021 0.0 21.2 1.4 22 10 9 68 0
Block DRANG
Forecast Date RAIN  (mm) TEMPERATURE HUMIDITY WIND CloudCover(octa)
Max(0C) Min(0C) 0830(%) 1730(%) Speed(kmph) Direction(0)
25-11-2021 0.0 21.1 0.4 29 12 8 67 0
26-11-2021 0.0 21.0 1.1 30 13 8 68 0
27-11-2021 0.0 20.0 0.1 32 12 7 68 0
28-11-2021 0.0 18.9 0.0 27 12 8 67 0
29-11-2021 0.0 19.1 -0.7 21 9 9 66 0
Block GOHAR
Forecast Date RAIN  (mm) TEMPERATURE HUMIDITY WIND CloudCover(octa)
Max(0C) Min(0C) 0830(%) 1730(%) Speed(kmph) Direction(0)
25-11-2021 0.0 21.1 0.5 30 13 8 68 0
26-11-2021 0.0 21.0 1.1 31 14 8 68 0
27-11-2021 0.0 20.0 0.1 33 13 7 75 0
28-11-2021 0.0 19.0 0.1 29 13 8 68 0
29-11-2021 0.0 19.1 -0.6 23 10 9 68 0
Block GOPALPUR
Forecast Date RAIN  (mm) TEMPERATURE HUMIDITY WIND CloudCover(octa)
Max(0C) Min(0C) 0830(%) 1730(%) Speed(kmph) Direction(0)
25-11-2021 0.0 20.5 -0.5 30 13 9 68 0
26-11-2021 0.0 20.4 0.2 30 15 8 68 0
27-11-2021 0.0 19.5 -0.7 33 13 8 68 0
28-11-2021 0.0 18.4 -0.8 29 12 9 68 0
29-11-2021 0.0 18.6 -1.5 22 10 10 68 0
Block KARSOG
Forecast Date RAIN  (mm) TEMPERATURE HUMIDITY WIND CloudCover(octa)
Max(0C) Min(0C) 0830(%) 1730(%) Speed(kmph) Direction(0)
25-11-2021 0.0 21.2 0.5 30 13 8 68 0
26-11-2021 0.0 21.1 1.3 31 14 8 68 0
27-11-2021 0.0 20.1 0.2 33 14 7 68 0
28-11-2021 0.0 19.1 0.2 30 14 8 68 0
29-11-2021 0.0 19.3 -0.5 23 10 9 68 0
Block MANDI-SADAR
Forecast Date RAIN  (mm) TEMPERATURE HUMIDITY WIND CloudCover(octa)
Max(0C) Min(0C) 0830(%) 1730(%) Speed(kmph) Direction(0)
25-11-2021 0.0 24.1 3.5 29 12 8 68 0
26-11-2021 0.0 24.0 4.1 30 13 8 68 0
27-11-2021 0.0 23.0 3.1 32 13 7 68 0  
28-11-2021 0.0 21.9 3.0 28 12 8 68 0
29-11-2021 0.0 22.1 2.3 22 10 9 68 0
Block SERAJ
Forecast Date RAIN  (mm) TEMPERATURE HUMIDITY WIND CloudCover(octa)
Max(0C) Min(0C) 0830(%) 1730(%) Speed(kmph) Direction(0)
25-11-2021 0.0 19.1 -1.6 29 12 8 68 0
26-11-2021 0.0 19.0 -0.9 30 13 8 68 0
27-11-2021 0.0 18.0 -1.9 32 13 7 68 0
28-11-2021 0.0 16.9 -2.0 28 12 8 68 0
29-11-2021 0.0 17.1 -2.7 22 10 9 68 0
Block SUNDARNAGAR
Forecast Date RAIN  (mm) TEMPERATURE HUMIDITY WIND CloudCover(octa)
Max(0C) Min(0C) 0830(%) 1730(%) Speed(kmph) Direction(0)
25-11-2021 0.0 23.8 3.2 30 13 8 68 0
26-11-2021 0.0 23.8 3.9 31 14 8 68 0
27-11-2021 0.0 22.8 2.9 33 13 7 75 0
28-11-2021 0.0 21.7 2.8 30 13 8 74 0
29-11-2021 0.0 21.8 2.1 24 10 9 68 0